Time;durP1;ratioP1;P1;durP2;ratioP2;P2;SDS_P1;SDS_P2;PMS_P1;PMS_P2;Temp;Humidity;BMP_temperature;BMP_pressure;BME280_temperature;BME280_humidity;BME280_pressure;Samples;Min_cycle;Max_cycle;Signal;HPM_P1;HPM_P2
2022/07/09 00:02:11;;;;;;;;;5.00;4.00;;;;;24.12;32.00;102378.34;5019714;28;45290;-60
2022/07/09 00:04:37;;;;;;;;;5.00;5.00;;;;;24.09;32.12;102373.97;5036293;28;45278;-60
2022/07/09 00:07:02;;;;;;;;;4.50;3.75;;;;;24.09;31.97;102376.66;5018565;28;45803;-60
2022/07/09 00:09:28;;;;;;;;;4.75;3.50;;;;;24.08;31.99;102376.72;5018661;28;45474;-60
2022/07/09 00:11:53;;;;;;;;;5.25;4.25;;;;;24.06;32.14;102370.56;5036581;28;45439;-61
2022/07/09 00:14:19;;;;;;;;;4.50;4.00;;;;;24.03;32.38;102376.94;5020923;28;45371;-60
2022/07/09 00:16:44;;;;;;;;;5.00;4.50;;;;;24.02;32.37;102378.75;5019112;28;47053;-61
2022/07/09 00:19:10;;;;;;;;;4.00;3.00;;;;;24.01;32.38;102376.13;5020810;28;45452;-61
2022/07/09 00:21:35;;;;;;;;;4.75;4.75;;;;;23.98;32.54;102377.13;5021221;28;45362;-60
2022/07/09 00:24:00;;;;;;;;;4.75;3.25;;;;;23.97;32.11;102375.38;5020631;28;45497;-60
2022/07/09 00:26:26;;;;;;;;;7.00;5.00;;;;;23.94;32.63;102366.63;5019017;28;46320;-60
2022/07/09 00:28:51;;;;;;;;;3.67;3.67;;;;;23.94;32.58;102366.63;5020522;28;45311;-61
2022/07/09 00:31:16;;;;;;;;;4.00;4.00;;;;;23.92;32.76;102369.34;5020742;28;45575;-60
2022/07/09 00:33:42;;;;;;;;;5.00;4.75;;;;;23.89;32.77;102369.47;5020649;28;45411;-60
2022/07/09 00:36:07;;;;;;;;;4.50;3.75;;;;;23.86;32.75;102369.59;5020782;28;46183;-59
2022/07/09 00:38:32;;;;;;;;;4.75;3.50;;;;;23.82;32.68;102360.84;5019229;28;45247;-60
2022/07/09 00:40:58;;;;;;;;;8.75;5.50;;;;;23.80;32.83;102357.34;5020838;28;46109;-59
2022/07/09 00:43:23;;;;;;;;;4.00;4.00;;;;;23.79;32.97;102371.69;5020534;28;45434;-59
2022/07/09 00:45:49;;;;;;;;;4.75;3.25;;;;;23.75;32.82;102354.00;5020268;28;46144;-59
2022/07/09 00:48:15;;;;;;;;;4.00;4.00;;;;;23.76;33.01;102355.75;5020225;28;45271;-59
2022/07/09 00:50:42;;;;;;;;;5.00;5.00;;;;;23.72;33.22;102358.63;5020497;28;45347;-59
2022/07/09 00:53:11;;;;;;;;;4.00;4.00;;;;;23.72;33.30;102358.63;5020342;28;45304;-59
2022/07/09 00:55:38;;;;;;;;;5.75;5.00;;;;;23.69;32.88;102356.94;5020132;28;45303;-60
2022/07/09 00:58:03;;;;;;;;;3.50;3.50;;;;;23.66;32.95;102357.06;5020197;28;45262;-60
2022/07/09 01:00:30;;;;;;;;;4.00;4.00;;;;;23.64;32.92;102358.97;5019990;28;45372;-60
2022/07/09 01:02:56;;;;;;;;;6.00;4.25;;;;;23.62;33.52;102356.34;5019936;28;45247;-60
2022/07/09 01:05:21;;;;;;;;;5.75;4.50;;;;;23.60;33.26;102355.53;5020118;28;45318;-60
2022/07/09 01:07:46;;;;;;;;;9.00;4.00;;;;;23.56;33.62;102353.94;5015105;28;45297;-60
2022/07/09 01:10:12;;;;;;;;;4.00;3.75;;;;;23.54;33.55;102353.97;5020494;28;45444;-60
2022/07/09 01:12:38;;;;;;;;;4.50;4.50;;;;;23.51;33.35;102350.59;5019989;28;45411;-59
2022/07/09 01:15:04;;;;;;;;;3.75;3.75;;;;;23.49;33.51;102347.09;5019876;28;46117;-59
2022/07/09 01:17:37;;;;;;;;;3.75;3.75;;;;;23.46;33.55;102344.53;5019920;28;45269;-59
2022/07/09 01:20:03;;;;;;;;;5.25;5.00;;;;;23.44;33.85;102349.09;5020127;28;45268;-60
2022/07/09 01:22:29;;;;;;;;;6.00;5.00;;;;;23.41;33.76;102351.91;5019962;28;45246;-59
2022/07/09 01:24:56;;;;;;;;;5.25;4.50;;;;;23.37;33.97;102351.19;5035085;28;46374;-59
2022/07/09 01:27:22;;;;;;;;;6.00;5.00;;;;;23.34;34.07;102346.78;5020485;28;45288;-59
2022/07/09 01:29:49;;;;;;;;;5.25;5.00;;;;;23.30;34.03;102336.28;5026398;28;45194;-59
2022/07/09 01:32:15;;;;;;;;;4.50;4.50;;;;;23.27;34.16;102339.97;5026005;28;45458;-60
2022/07/09 01:34:41;;;;;;;;;8.50;6.25;;;;;23.23;34.32;102335.66;5026399;28;46952;-60
2022/07/09 01:37:06;;;;;;;;;6.25;5.25;;;;;23.21;34.07;102335.72;5026120;28;45808;-60
2022/07/09 01:39:31;;;;;;;;;5.25;3.00;;;;;23.18;33.85;102332.31;5026497;28;45229;-60
2022/07/09 01:41:58;;;;;;;;;4.25;4.25;;;;;23.16;33.92;102340.41;5041668;28;45684;-60
2022/07/09 01:44:23;;;;;;;;;5.50;5.50;;;;;23.12;34.27;102329.84;5026310;28;46181;-60
2022/07/09 01:46:48;;;;;;;;;5.00;5.00;;;;;23.12;34.53;102336.09;5025638;28;45300;-60
2022/07/09 01:49:14;;;;;;;;;5.75;5.50;;;;;23.08;34.69;102337.19;5026311;28;45379;-59
2022/07/09 01:51:39;;;;;;;;;5.25;5.25;;;;;23.07;34.69;102329.16;5025867;28;45517;-60
2022/07/09 01:54:05;;;;;;;;;6.00;6.00;;;;;23.00;34.58;102321.38;5026413;28;45398;-60
2022/07/09 01:56:30;;;;;;;;;5.25;4.50;;;;;23.02;34.47;102330.25;5026080;28;45300;-60
2022/07/09 01:58:56;;;;;;;;;7.75;6.25;;;;;23.00;34.66;102325.88;5026487;28;45407;-60
2022/07/09 02:01:21;;;;;;;;;6.00;6.00;;;;;22.98;34.68;102328.63;5025656;28;45406;-61
2022/07/09 02:03:46;;;;;;;;;6.00;6.00;;;;;22.95;34.87;102323.38;5025920;28;46946;-61
2022/07/09 02:06:12;;;;;;;;;5.75;5.75;;;;;22.94;34.64;102321.63;5026031;28;45319;-61
2022/07/09 02:08:39;;;;;;;;;7.00;7.00;;;;;22.92;34.71;102322.63;5020655;28;45248;-61
2022/07/09 02:11:04;;;;;;;;;7.50;5.25;;;;;22.89;34.79;102320.97;5025834;28;45465;-62
2022/07/09 02:13:30;;;;;;;;;9.50;8.00;;;;;22.86;35.13;102311.25;5025851;28;45318;-61
2022/07/09 02:15:55;;;;;;;;;7.75;6.50;;;;;22.85;35.36;102314.84;5025592;28;45204;-61
2022/07/09 02:18:21;;;;;;;;;6.50;6.50;;;;;22.84;34.87;102314.91;5040913;28;45211;-61
2022/07/09 02:20:46;;;;;;;;;7.00;6.00;;;;;22.83;34.93;102310.50;5025756;28;45537;-61
2022/07/09 02:23:11;;;;;;;;;5.75;5.75;;;;;22.81;35.13;102315.06;5025953;28;47020;-60
2022/07/09 02:25:37;;;;;;;;;5.00;5.00;;;;;22.77;35.41;102297.38;5025864;28;45300;-60
2022/07/09 02:28:02;;;;;;;;;9.75;7.00;;;;;22.78;35.09;102301.78;5026231;28;45600;-60
2022/07/09 02:30:28;;;;;;;;;8.50;7.00;;;;;22.77;35.47;102302.72;5025391;28;45471;-60
2022/07/09 02:32:53;;;;;;;;;9.00;5.50;;;;;22.76;35.36;102304.53;5025823;28;45333;-60
2022/07/09 02:35:19;;;;;;;;;6.00;5.25;;;;;22.72;35.67;102293.06;5025605;28;46056;-64
2022/07/09 02:37:44;;;;;;;;;7.00;7.00;;;;;22.71;35.56;102302.03;5026212;28;45294;-60
2022/07/09 02:40:10;;;;;;;;;6.25;6.25;;;;;22.69;35.71;102295.88;5023422;28;45292;-60
2022/07/09 02:42:36;;;;;;;;;7.75;7.00;;;;;22.68;35.62;102296.81;5022435;28;45391;-60
2022/07/09 02:45:02;;;;;;;;;5.25;5.25;;;;;22.65;35.67;102291.56;5022016;28;45264;-60
2022/07/09 02:47:27;;;;;;;;;7.75;7.75;;;;;22.65;35.60;102290.69;5022419;28;45221;-60
2022/07/09 02:49:52;;;;;;;;;6.00;6.00;;;;;22.62;35.65;102285.47;5021989;28;49182;-60
2022/07/09 02:52:18;;;;;;;;;7.00;7.00;;;;;22.61;35.59;102281.91;5021114;28;45378;-60
2022/07/09 02:54:43;;;;;;;;;10.25;9.50;;;;;22.59;35.74;102286.47;5022086;28;45268;-60
2022/07/09 02:57:08;;;;;;;;;6.50;4.25;;;;;22.54;35.80;102277.72;5022476;28;45263;-60
2022/07/09 02:59:34;;;;;;;;;8.00;8.00;;;;;22.51;36.09;102289.44;5021955;28;45182;-60
2022/07/09 03:02:00;;;;;;;;;10.00;8.25;;;;;22.50;35.85;102292.19;5021572;28;45282;-60
2022/07/09 03:04:26;;;;;;;;;6.25;6.25;;;;;22.48;35.84;102294.94;5020792;28;45346;-60
2022/07/09 03:06:51;;;;;;;;;8.50;7.00;;;;;22.45;36.17;102291.50;5021117;28;45392;-60
2022/07/09 03:09:16;;;;;;;;;8.75;7.50;;;;;22.42;36.04;102294.31;5017074;28;45524;-60
2022/07/09 03:11:42;;;;;;;;;6.25;6.25;;;;;22.41;36.36;102301.47;5021896;28;46484;-60
2022/07/09 03:14:08;;;;;;;;;7.00;7.00;;;;;22.36;36.38;102292.69;5021911;28;45346;-59
2022/07/09 03:16:33;;;;;;;;;8.00;7.00;;;;;22.33;36.30;102296.38;5021742;28;45553;-60
2022/07/09 03:18:58;;;;;;;;;8.25;7.00;;;;;22.35;36.10;102305.22;5021800;28;45339;-60
2022/07/09 03:21:24;;;;;;;;;7.75;7.00;;;;;22.32;36.30;102305.34;5021799;28;45385;-59
2022/07/09 03:23:49;;;;;;;;;10.75;10.75;;;;;22.32;36.56;102299.13;5021693;28;45298;-59
2022/07/09 03:26:14;;;;;;;;;7.75;6.75;;;;;22.26;36.49;102294.84;5021812;28;45485;-59
2022/07/09 03:28:40;;;;;;;;;8.00;8.00;;;;;22.27;36.67;102296.63;5021644;28;45522;-59
2022/07/09 03:31:05;;;;;;;;;8.00;8.00;;;;;22.24;36.28;102310.13;5021142;28;45960;-59
2022/07/09 03:33:30;;;;;;;;;7.50;7.50;;;;;22.24;36.40;102312.81;5020225;28;45278;-60
2022/07/09 03:35:56;;;;;;;;;6.00;4.75;;;;;22.16;36.43;102294.38;5021437;28;45450;-59
2022/07/09 03:38:23;;;;;;;;;8.50;8.50;;;;;22.18;36.67;102308.56;5021661;28;45517;-59
2022/07/09 03:40:48;;;;;;;;;8.75;7.50;;;;;22.15;37.06;102307.78;5021607;28;45233;-60
2022/07/09 03:43:14;;;;;;;;;8.00;8.00;;;;;22.12;37.11;102308.78;5021269;28;45231;-60
2022/07/09 03:45:39;;;;;;;;;7.75;7.75;;;;;22.09;36.83;102311.59;5021785;28;45212;-60
2022/07/09 03:48:05;;;;;;;;;12.00;12.00;;;;;22.07;37.25;102310.75;5021195;28;45344;-60
2022/07/09 03:50:31;;;;;;;;;7.25;6.75;;;;;22.04;37.02;102311.75;5020969;28;45310;-60
2022/07/09 03:52:57;;;;;;;;;8.25;8.00;;;;;22.03;37.08;102320.72;5021140;28;45182;-60
2022/07/09 03:55:23;;;;;;;;;10.00;10.00;;;;;22.02;36.67;102312.75;5021679;28;45416;-60
2022/07/09 03:57:49;;;;;;;;;8.50;8.00;;;;;22.00;37.07;102319.94;5021073;28;45531;-60
2022/07/09 04:00:14;;;;;;;;;7.50;7.50;;;;;21.97;36.90;102315.59;5036571;28;48123;-60
2022/07/09 04:02:40;;;;;;;;;8.75;8.75;;;;;21.96;37.35;102321.91;5020923;28;45225;-61
2022/07/09 04:05:06;;;;;;;;;9.50;9.00;;;;;21.93;37.18;102319.31;5021064;28;45714;-61
2022/07/09 04:07:31;;;;;;;;;10.50;10.00;;;;;21.89;36.93;102331.94;5015782;28;45410;-61
2022/07/09 04:09:57;;;;;;;;;10.25;10.25;;;;;21.86;37.49;102323.13;5020878;28;45299;-60
2022/07/09 04:12:22;;;;;;;;;12.25;11.00;;;;;21.84;37.19;102325.88;5021111;28;45274;-60
2022/07/09 04:14:48;;;;;;;;;9.00;8.50;;;;;21.82;37.48;102333.06;5020979;28;45767;-60
2022/07/09 04:17:13;;;;;;;;;10.75;9.25;;;;;21.81;37.48;102327.78;5020984;28;45256;-60
2022/07/09 04:19:38;;;;;;;;;13.25;11.50;;;;;21.78;37.18;102336.81;5020869;28;45987;-60
2022/07/09 04:22:04;;;;;;;;;9.25;9.25;;;;;21.76;37.81;102333.34;5020939;28;45280;-60
2022/07/09 04:24:30;;;;;;;;;10.00;10.00;;;;;21.75;37.78;102335.13;5021116;28;45380;-60
2022/07/09 04:26:56;;;;;;;;;8.50;8.50;;;;;21.72;37.27;102329.88;5019582;28;45435;-60
2022/07/09 04:29:21;;;;;;;;;11.00;11.00;;;;;21.72;37.56;102345.03;5020821;28;47298;-60
2022/07/09 04:31:47;;;;;;;;;11.00;10.00;;;;;21.69;37.54;102338.00;5035579;28;45405;-60
2022/07/09 04:34:12;;;;;;;;;10.25;10.25;;;;;21.70;37.43;102345.13;5021016;28;45282;-60
2022/07/09 04:36:37;;;;;;;;;14.00;10.50;;;;;21.68;37.55;102343.41;5020664;28;45530;-60
2022/07/09 04:39:04;;;;;;;;;9.75;9.00;;;;;21.67;37.49;102331.84;5019967;28;49254;-60
2022/07/09 04:41:29;;;;;;;;;10.25;10.00;;;;;21.67;38.12;102339.00;5020556;28;45314;-60
2022/07/09 04:43:55;;;;;;;;;10.25;10.25;;;;;21.62;38.18;102333.78;5020564;28;45332;-60
2022/07/09 04:46:22;;;;;;;;;11.25;11.00;;;;;21.56;38.06;102323.34;5020049;28;45312;-60
2022/07/09 04:48:47;;;;;;;;;11.50;9.00;;;;;21.65;37.87;102340.88;5020258;28;47028;-60
2022/07/09 04:51:13;;;;;;;;;9.00;8.25;;;;;21.63;38.00;102337.38;5020056;28;45410;-60
2022/07/09 04:53:38;;;;;;;;;10.50;10.50;;;;;21.63;38.30;102340.03;5020643;28;45160;-60
2022/07/09 04:56:04;;;;;;;;;12.75;11.75;;;;;21.60;37.59;102330.31;5019026;28;45377;-60
2022/07/09 04:58:30;;;;;;;;;11.75;9.50;;;;;21.61;37.96;102334.75;5020436;28;45228;-60
2022/07/09 05:00:55;;;;;;;;;10.25;10.25;;;;;21.61;37.81;102336.53;5019838;28;45288;-60
2022/07/09 05:03:20;;;;;;;;;10.00;10.00;;;;;21.60;38.35;102333.00;5019265;28;45284;-60
2022/07/09 05:05:46;;;;;;;;;12.75;10.00;;;;;21.56;38.40;102331.38;5020321;28;45292;-60
2022/07/09 05:08:11;;;;;;;;;9.50;9.50;;;;;21.58;38.50;102333.06;5015184;28;46269;-60
2022/07/09 05:10:36;;;;;;;;;12.50;11.00;;;;;21.57;37.85;102327.75;5019908;28;45157;-60
2022/07/09 05:13:02;;;;;;;;;11.00;11.00;;;;;21.60;37.97;102341.03;5020409;28;45212;-60
2022/07/09 05:15:30;;;;;;;;;11.75;10.75;;;;;21.59;38.32;102333.91;5019879;28;45285;-60
2022/07/09 05:17:56;;;;;;;;;12.00;11.25;;;;;21.59;38.26;102333.91;5019862;28;46067;-60
2022/07/09 05:20:21;;;;;;;;;11.25;10.75;;;;;21.58;38.71;102337.50;5019851;28;45304;-60
2022/07/09 05:22:46;;;;;;;;;10.50;10.50;;;;;21.56;38.64;102340.25;5020088;28;45311;-60
2022/07/09 05:25:12;;;;;;;;;14.25;12.25;;;;;21.57;38.05;102341.13;5019944;28;45409;-60
2022/07/09 05:27:42;;;;;;;;;10.75;9.25;;;;;21.57;38.41;102352.72;5018277;28;45344;-60
2022/07/09 05:30:09;;;;;;;;;11.25;10.25;;;;;21.55;38.21;102338.50;5018240;28;45385;-60
2022/07/09 05:32:34;;;;;;;;;11.00;11.00;;;;;21.54;38.82;102344.75;5019829;28;45481;-60
2022/07/09 05:34:59;;;;;;;;;14.00;12.25;;;;;21.55;38.35;102341.19;5019938;28;45306;-60
2022/07/09 05:37:25;;;;;;;;;13.00;13.00;;;;;21.52;38.73;102335.03;5019512;28;55031;-60
2022/07/09 05:39:50;;;;;;;;;11.75;10.75;;;;;21.54;38.27;102342.06;5019836;28;45324;-60
2022/07/09 05:42:15;;;;;;;;;13.50;12.25;;;;;21.55;38.63;102340.28;5019502;28;51316;-60
2022/07/09 05:44:40;;;;;;;;;14.00;11.50;;;;;21.55;38.48;102345.63;5019645;28;45513;-60
2022/07/09 05:47:06;;;;;;;;;10.00;10.00;;;;;21.54;38.42;102343.88;5019579;28;48626;-60
2022/07/09 05:49:31;;;;;;;;;10.50;9.75;;;;;21.53;38.75;102345.66;5019452;28;45322;-60
2022/07/09 05:51:57;;;;;;;;;14.25;14.25;;;;;21.53;38.93;102347.47;5020114;28;45742;-60
2022/07/09 05:54:22;;;;;;;;;13.00;11.75;;;;;21.53;39.13;102343.00;5019685;28;45298;-60
2022/07/09 05:56:47;;;;;;;;;12.00;11.25;;;;;21.52;38.83;102338.59;5019525;28;45228;-60
2022/07/09 05:59:12;;;;;;;;;14.75;13.75;;;;;21.53;38.62;102342.13;5019764;28;45261;-60
2022/07/09 06:01:42;;;;;;;;;13.75;11.00;;;;;21.52;38.52;102343.94;5019246;28;45605;-60
2022/07/09 06:04:08;;;;;;;;;8.50;8.25;;;;;21.53;38.54;102351.00;5034776;28;45557;-60
2022/07/09 06:06:33;;;;;;;;;14.75;11.25;;;;;21.53;38.70;102344.81;5019407;28;46915;-60
2022/07/09 06:08:59;;;;;;;;;12.00;12.00;;;;;21.54;39.11;102341.22;5014300;28;45342;-60
2022/07/09 06:11:24;;;;;;;;;10.75;10.75;;;;;21.56;38.71;102347.41;5019557;28;45313;-60
2022/07/09 06:13:49;;;;;;;;;13.25;12.00;;;;;21.55;38.89;102343.84;5019654;28;46419;-60
2022/07/09 06:16:15;;;;;;;;;11.25;11.25;;;;;21.58;39.04;102340.19;5022388;28;46347;-60
2022/07/09 06:18:40;;;;;;;;;10.00;10.00;;;;;21.61;38.78;102342.78;5022809;28;45506;-60
2022/07/09 06:21:05;;;;;;;;;13.25;13.25;;;;;21.62;39.30;102346.31;5022793;28;45316;-60
2022/07/09 06:23:31;;;;;;;;;12.75;12.00;;;;;21.65;39.43;102347.06;5022761;28;45311;-60
2022/07/09 06:25:56;;;;;;;;;9.50;9.50;;;;;21.68;39.47;102346.94;5037910;28;47079;-60
2022/07/09 06:28:21;;;;;;;;;11.00;9.50;;;;;21.68;39.11;102333.59;5022657;28;45460;-60
2022/07/09 06:30:47;;;;;;;;;11.25;11.25;;;;;21.72;38.89;102342.38;5022190;28;45252;-60
2022/07/09 06:33:12;;;;;;;;;10.25;8.50;;;;;21.76;38.92;102344.03;5022714;28;45356;-60
2022/07/09 06:35:37;;;;;;;;;13.25;12.25;;;;;21.77;39.37;102336.88;5022238;28;46470;-60
2022/07/09 06:38:03;;;;;;;;;10.25;9.75;;;;;21.83;39.29;102350.03;5021313;28;45259;-60
2022/07/09 06:40:29;;;;;;;;;10.75;10.00;;;;;21.85;39.11;102341.00;5022480;28;45217;-60
2022/07/09 06:42:54;;;;;;;;;11.00;10.75;;;;;21.88;39.43;102340.88;5022449;28;45238;-60
2022/07/09 06:45:20;;;;;;;;;12.50;11.25;;;;;21.91;39.59;102337.22;5021827;28;45352;-60
2022/07/09 06:47:45;;;;;;;;;12.00;11.25;;;;;21.94;39.35;102339.78;5021157;28;45331;-60
2022/07/09 06:50:10;;;;;;;;;13.25;11.75;;;;;21.98;39.12;102338.75;5022028;28;45279;-60
2022/07/09 06:52:36;;;;;;;;;13.00;12.00;;;;;22.00;39.29;102344.03;5022262;28;45520;-60
2022/07/09 06:55:01;;;;;;;;;12.50;12.50;;;;;22.02;39.55;102332.34;5022048;28;46194;-60
2022/07/09 06:57:26;;;;;;;;;7.25;7.25;;;;;22.05;39.71;102345.63;5022370;28;45214;-60
2022/07/09 06:59:52;;;;;;;;;12.50;12.50;;;;;22.07;39.28;102348.25;5021921;28;45568;-61
2022/07/09 07:02:17;;;;;;;;;12.50;11.75;;;;;22.09;38.96;102341.03;5021744;28;52596;-60
2022/07/09 07:04:43;;;;;;;;;11.50;11.50;;;;;22.12;39.30;102342.72;5021689;28;45374;-60
2022/07/09 07:07:08;;;;;;;;;12.25;12.25;;;;;22.15;39.46;102335.44;5018792;28;45272;-60
2022/07/09 07:09:33;;;;;;;;;11.00;9.75;;;;;22.19;39.71;102330.84;5018833;28;45665;-60
2022/07/09 07:11:59;;;;;;;;;12.00;11.00;;;;;22.20;39.44;102329.91;5022009;28;45308;-60
2022/07/09 07:14:24;;;;;;;;;12.25;11.50;;;;;22.28;39.62;102337.66;5021667;28;46050;-60
2022/07/09 07:16:50;;;;;;;;;10.00;10.00;;;;;22.32;39.36;102336.59;5021467;28;45281;-60
2022/07/09 07:19:16;;;;;;;;;9.00;9.00;;;;;22.35;39.38;102320.41;5021961;28;45327;-60
2022/07/09 07:21:42;;;;;;;;;10.00;10.00;;;;;22.36;39.51;102333.75;5021999;28;45307;-60
2022/07/09 07:24:07;;;;;;;;;12.75;9.75;;;;;22.42;39.46;102332.66;5036720;28;47308;-61
2022/07/09 07:26:34;;;;;;;;;13.00;11.00;;;;;22.45;39.70;102326.31;5020864;28;45201;-61
2022/07/09 07:28:59;;;;;;;;;13.00;12.00;;;;;22.49;39.39;102336.84;5021681;28;45268;-60
2022/07/09 07:31:25;;;;;;;;;10.25;9.25;;;;;22.54;39.29;102332.19;5019752;28;45688;-61
2022/07/09 07:33:51;;;;;;;;;11.75;11.00;;;;;22.57;39.89;102328.50;5021436;28;45734;-61
2022/07/09 07:36:16;;;;;;;;;10.00;9.75;;;;;22.62;39.64;102333.69;5021821;28;45252;-60
2022/07/09 07:38:42;;;;;;;;;8.50;8.50;;;;;22.67;39.62;102329.03;5021587;28;45232;-60
2022/07/09 07:41:07;;;;;;;;;11.75;11.50;;;;;22.71;39.38;102338.66;5021597;28;45443;-60
2022/07/09 07:43:32;;;;;;;;;7.75;7.75;;;;;22.77;39.69;102335.75;5021382;28;46235;-60
2022/07/09 07:45:58;;;;;;;;;11.50;10.00;;;;;22.81;39.80;102334.69;5021037;28;45269;-60
2022/07/09 07:48:23;;;;;;;;;7.25;7.25;;;;;22.86;39.54;102334.50;5021259;28;45323;-60
2022/07/09 07:50:49;;;;;;;;;9.00;8.50;;;;;22.87;39.42;102326.38;5021203;28;45323;-61
2022/07/09 07:53:14;;;;;;;;;10.00;8.75;;;;;22.96;39.53;102340.34;5019892;28;45847;-60
2022/07/09 07:55:40;;;;;;;;;10.25;8.50;;;;;23.01;39.35;102338.34;5036229;28;45290;-60
2022/07/09 07:58:05;;;;;;;;;8.25;8.25;;;;;23.05;39.52;102330.09;5021400;28;45268;-60
2022/07/09 08:00:31;;;;;;;;;5.75;5.75;;;;;23.11;39.30;102333.50;5020978;28;45575;-60
2022/07/09 08:02:56;;;;;;;;;7.25;7.25;;;;;23.15;39.11;102327.94;5020809;28;46136;-60
2022/07/09 08:05:21;;;;;;;;;8.00;7.25;;;;;23.21;39.07;102333.06;5021170;28;45440;-60
2022/07/09 08:07:47;;;;;;;;;6.50;6.50;;;;;23.26;39.12;102327.50;5016006;28;45396;-60
2022/07/09 08:10:12;;;;;;;;;9.75;8.25;;;;;23.32;39.07;102327.25;5021118;28;45260;-60
2022/07/09 08:12:37;;;;;;;;;8.00;8.00;;;;;23.39;38.88;102327.84;5020796;28;45337;-60
2022/07/09 08:15:03;;;;;;;;;8.50;7.25;;;;;23.44;39.27;102333.00;5019589;28;45832;-60
2022/07/09 08:17:29;;;;;;;;;8.75;8.75;;;;;23.48;39.03;102321.19;5019551;28;45255;-60
2022/07/09 08:19:54;;;;;;;;;7.00;6.25;;;;;23.55;38.77;102325.38;5019798;28;45365;-60
2022/07/09 08:22:20;;;;;;;;;7.50;6.50;;;;;23.54;38.76;102312.88;5020838;28;45340;-60
2022/07/09 08:24:45;;;;;;;;;6.50;6.50;;;;;23.63;39.07;102317.81;5036290;28;45262;-60
2022/07/09 08:27:10;;;;;;;;;5.75;5.25;;;;;23.70;38.97;102319.31;5021125;28;45169;-60
2022/07/09 08:29:37;;;;;;;;;4.75;4.50;;;;;23.77;39.08;102324.41;5020259;28;45229;-60
2022/07/09 08:32:04;;;;;;;;;5.25;5.25;;;;;23.78;38.82;102320.78;5019992;28;46021;-60
2022/07/09 08:34:29;;;;;;;;;10.00;8.50;;;;;23.81;39.28;102302.72;5020597;28;45326;-60
2022/07/09 08:36:54;;;;;;;;;8.25;8.25;;;;;23.90;38.49;102309.47;5019262;28;45400;-60
2022/07/09 08:39:19;;;;;;;;;8.50;6.75;;;;;23.98;38.68;102318.06;5020553;28;49502;-60
2022/07/09 08:41:45;;;;;;;;;6.00;6.00;;;;;24.02;38.56;102311.66;5020431;28;46887;-60
2022/07/09 08:44:11;;;;;;;;;5.00;5.00;;;;;24.09;38.64;102314.03;5020737;28;45394;-59
2022/07/09 08:46:38;;;;;;;;;6.50;5.25;;;;;24.13;38.64;102308.44;5035622;28;45439;-60
2022/07/09 08:49:05;;;;;;;;;9.00;6.25;;;;;24.17;38.45;102307.34;5020430;28;45282;-60
2022/07/09 08:51:31;;;;;;;;;6.00;6.00;;;;;24.26;38.35;102310.53;5019903;28;46334;-60
2022/07/09 08:53:57;;;;;;;;;8.00;6.50;;;;;24.31;38.62;102306.72;5020368;28;45244;-60
2022/07/09 08:56:23;;;;;;;;;4.75;4.75;;;;;24.38;38.27;102309.97;5020348;28;45502;-60
2022/07/09 08:58:48;;;;;;;;;4.50;4.50;;;;;24.44;37.99;102300.72;5020232;28;45415;-60
2022/07/09 09:01:17;;;;;;;;;5.00;4.50;;;;;24.50;38.42;102305.81;5019693;28;46036;-60
2022/07/09 09:03:42;;;;;;;;;6.50;5.00;;;;;24.56;38.07;102301.97;5020406;28;45435;-60
2022/07/09 09:06:10;;;;;;;;;5.50;5.00;;;;;24.62;38.09;102307.03;5018926;28;45270;-60
2022/07/09 09:08:40;;;;;;;;;5.25;5.25;;;;;24.66;38.23;102297.91;5015073;28;45314;-59
2022/07/09 09:11:08;;;;;;;;;4.00;4.00;;;;;24.73;38.24;102298.47;5019796;28;46952;-60
2022/07/09 09:13:40;;;;;;;;;5.00;5.00;;;;;24.78;37.78;102297.28;5020239;28;45247;-60
2022/07/09 09:16:07;;;;;;;;;6.75;5.25;;;;;24.84;37.79;102296.09;5019842;28;45320;-60
2022/07/09 09:18:52;;;;;;;;;4.75;4.00;;;;;24.89;37.96;102288.72;5018838;28;45489;-60
2022/07/09 09:21:23;;;;;;;;;6.75;6.75;;;;;24.96;37.45;102298.19;5019860;28;46965;-60
2022/07/09 09:23:52;;;;;;;;;6.00;6.00;;;;;25.03;37.59;102290.69;5019953;28;45292;-59
2022/07/09 09:26:23;;;;;;;;;7.25;7.25;;;;;25.07;37.79;102278.81;5020037;28;45322;-59
2022/07/09 09:28:59;;;;;;;;;6.50;4.50;;;;;25.11;37.19;102295.66;5019837;28;45317;-59
2022/07/09 09:31:25;;;;;;;;;4.75;4.75;;;;;25.17;37.41;102281.91;5019263;28;46484;-59
2022/07/09 09:33:52;;;;;;;;;4.25;4.25;;;;;25.23;37.49;102288.78;5019687;28;45347;-59
2022/07/09 09:36:35;;;;;;;;;5.25;4.25;;;;;25.29;37.14;102294.69;5019937;28;45372;-59
2022/07/09 09:39:23;;;;;;;;;6.00;4.25;;;;;25.35;37.28;102284.59;5019644;28;45331;-59
2022/07/09 09:41:51;;;;;;;;;7.00;5.00;;;;;25.42;37.46;102294.97;5019437;28;47104;-59
2022/07/09 09:44:21;;;;;;;;;4.75;4.75;;;;;25.47;36.87;102284.84;5019822;28;45236;-59
2022/07/09 09:46:47;;;;;;;;;6.75;5.25;;;;;25.55;37.16;102297.88;5019276;28;45326;-59
2022/07/09 09:49:15;;;;;;;;;6.00;6.00;;;;;25.63;37.27;102298.34;5020408;28;45543;-59
2022/07/09 09:51:44;;;;;;;;;4.50;4.50;;;;;25.69;37.18;102293.59;5022842;28;46403;-59
2022/07/09 09:54:10;;;;;;;;;4.50;4.50;;;;;25.80;37.00;102299.25;5023109;28;45426;-59
2022/07/09 09:56:35;;;;;;;;;7.00;5.25;;;;;25.85;36.95;102299.88;5023003;28;45445;-60
2022/07/09 09:59:01;;;;;;;;;5.50;5.50;;;;;25.94;36.89;102296.66;5023158;28;45307;-59
2022/07/09 10:01:28;;;;;;;;;4.00;4.00;;;;;26.02;36.70;102290.84;5022476;28;45833;-60
2022/07/09 10:03:55;;;;;;;;;6.50;5.00;;;;;26.13;36.43;102297.53;5037633;28;45250;-59
2022/07/09 10:06:20;;;;;;;;;5.75;5.00;;;;;26.20;36.44;102289.00;5022889;28;45486;-59
2022/07/09 10:08:45;;;;;;;;;7.25;7.25;;;;;26.31;36.86;102295.59;5033027;28;45355;-60
2022/07/09 10:11:11;;;;;;;;;8.00;8.00;;;;;26.38;36.68;102284.38;5022567;28;45379;-61
2022/07/09 10:13:56;;;;;;;;;6.75;6.75;;;;;26.49;36.78;102283.78;5021709;28;45289;-59
2022/07/09 10:16:40;;;;;;;;;7.25;7.25;;;;;26.62;36.49;102289.31;5022701;28;45301;-57
2022/07/09 10:19:06;;;;;;;;;7.00;5.75;;;;;26.70;35.83;102289.72;5022645;28;45240;-57
2022/07/09 10:21:42;;;;;;;;;6.50;6.00;;;;;26.80;35.99;102282.00;5022675;28;45326;-57
2022/07/09 10:24:09;;;;;;;;;7.50;7.00;;;;;26.89;36.49;102281.47;5022431;28;45276;-59
2022/07/09 10:26:44;;;;;;;;;8.00;6.25;;;;;27.01;36.23;102279.00;5022818;28;45302;-59
2022/07/09 10:29:22;;;;;;;;;7.25;6.75;;;;;27.13;35.97;102285.47;5022684;28;45337;-57
2022/07/09 10:31:49;;;;;;;;;6.00;5.75;;;;;27.24;35.73;102277.59;5022009;28;46030;-59
2022/07/09 10:34:39;;;;;;;;;8.50;8.50;;;;;27.38;36.17;102274.94;5022724;28;45233;-59
2022/07/09 10:37:05;;;;;;;;;8.00;7.00;;;;;27.50;36.22;102267.94;5022436;28;45335;-59
2022/07/09 10:39:31;;;;;;;;;5.75;5.75;;;;;27.66;35.83;102277.75;5022463;28;45265;-59
2022/07/09 10:42:18;;;;;;;;;6.50;6.00;;;;;27.79;35.82;102270.63;5022187;28;46691;-58
2022/07/09 10:44:45;;;;;;;;;6.50;5.75;;;;;27.94;35.40;102270.59;5022187;28;45240;-58
2022/07/09 10:47:10;;;;;;;;;5.25;5.25;;;;;28.11;35.56;102277.66;5022335;28;45297;-59
2022/07/09 10:49:36;;;;;;;;;8.75;8.25;;;;;28.29;35.30;102265.66;5022249;28;45324;-59
2022/07/09 10:52:04;;;;;;;;;4.00;4.00;;;;;28.54;35.57;102261.31;5004472;28;47422;-59
2022/07/09 10:54:29;;;;;;;;;4.25;4.25;;;;;28.90;35.88;102259.81;5022095;28;45385;-58
2022/07/09 10:56:56;;;;;;;;;6.25;5.00;;;;;29.36;36.34;102250.41;5022337;28;45521;-59
2022/07/09 10:59:22;;;;;;;;;5.25;5.25;;;;;29.84;36.27;102245.13;5022121;28;45486;-59
2022/07/09 11:01:48;;;;;;;;;7.00;6.00;;;;;30.32;36.04;102243.47;5020489;28;46993;-59
2022/07/09 11:04:28;;;;;;;;;4.50;4.50;;;;;30.76;35.93;102241.13;5020819;28;45253;-59
2022/07/09 11:06:53;;;;;;;;;5.75;5.75;;;;;31.17;35.35;102244.31;5020933;28;45394;-59
2022/07/09 11:09:19;;;;;;;;;4.00;3.50;;;;;31.48;35.41;102244.59;5018059;28;45443;-59
2022/07/09 11:11:47;;;;;;;;;4.75;4.75;;;;;31.80;34.99;102233.00;5021910;28;46146;-60
2022/07/09 11:14:13;;;;;;;;;5.00;4.75;;;;;32.25;35.95;102227.47;5021444;28;45333;-59
2022/07/09 11:16:39;;;;;;;;;4.00;3.75;;;;;32.81;35.63;102236.44;5021732;28;45271;-59
2022/07/09 11:19:14;;;;;;;;;6.75;6.50;;;;;33.47;35.33;102232.53;5021794;28;45324;-60